createdAt,value
2018-01-02T00:00:16.216Z,994.10
2018-01-02T00:00:51.453Z,994.10
2018-01-02T00:01:26.544Z,994.17
2018-01-02T00:02:01.952Z,994.19
2018-01-02T00:02:37.249Z,994.21
2018-01-02T00:03:12.848Z,994.23
2018-01-02T00:03:48.039Z,994.23
2018-01-02T00:04:23.655Z,994.27
2018-01-02T00:04:59.133Z,994.27
2018-01-02T00:05:34.336Z,994.25
2018-01-02T00:06:09.979Z,994.26
2018-01-02T00:06:45.564Z,994.27
2018-01-02T00:07:20.859Z,994.30
2018-01-02T00:07:56.037Z,994.29
2018-01-02T00:08:31.437Z,994.34
2018-01-02T00:09:06.816Z,994.30
2018-01-02T00:09:42.021Z,994.33
2018-01-02T00:10:17.507Z,994.33
2018-01-02T00:10:52.621Z,994.35
2018-01-02T00:11:28.206Z,994.35
2018-01-02T00:12:03.579Z,994.35
2018-01-02T00:12:38.988Z,994.38
2018-01-02T00:13:14.261Z,994.37
2018-01-02T00:13:49.866Z,994.40
2018-01-02T00:14:25.040Z,994.42
2018-01-02T00:15:00.450Z,994.42
2018-01-02T00:15:35.830Z,994.47
2018-01-02T00:16:11.140Z,994.43
2018-01-02T00:16:46.389Z,994.43
2018-01-02T00:17:21.965Z,994.45
2018-01-02T00:17:57.367Z,994.49
2018-01-02T00:18:32.550Z,994.43
2018-01-02T00:19:07.754Z,994.47
2018-01-02T00:19:43.128Z,994.45
2018-01-02T00:20:18.530Z,994.47
2018-01-02T00:20:54.008Z,994.49
2018-01-02T00:21:29.216Z,994.51
2018-01-02T00:22:04.327Z,994.52
2018-01-02T00:22:39.429Z,994.49
2018-01-02T00:23:14.644Z,994.53
2018-01-02T00:23:49.820Z,994.50
2018-01-02T00:24:24.928Z,994.55
2018-01-02T00:25:00.308Z,994.58
2018-01-02T00:25:35.632Z,994.57
2018-01-02T00:26:11.122Z,994.59
2018-01-02T00:26:46.513Z,994.59
2018-01-02T00:27:21.724Z,994.61
2018-01-02T00:27:56.821Z,994.58
2018-01-02T00:28:32.227Z,994.69
2018-01-02T00:29:07.709Z,994.65
2018-01-02T00:29:43.113Z,994.68
2018-01-02T00:30:18.509Z,994.71
2018-01-02T00:30:53.720Z,994.66
2018-01-02T00:31:28.800Z,994.73
2018-01-02T00:32:04.204Z,994.73
2018-01-02T00:32:39.519Z,994.72
2018-01-02T00:33:14.630Z,994.73
2018-01-02T00:33:50.238Z,994.75
2018-01-02T00:34:25.632Z,994.80
2018-01-02T00:35:00.936Z,994.85
2018-01-02T00:35:36.422Z,994.85
2018-01-02T00:36:11.826Z,994.85
2018-01-02T00:36:46.915Z,994.80
2018-01-02T00:37:22.765Z,994.86
2018-01-02T00:37:58.271Z,994.87
2018-01-02T00:38:33.585Z,994.91
2018-01-02T00:39:08.886Z,994.90
2018-01-02T00:39:44.064Z,994.90
2018-01-02T00:40:19.466Z,994.99
2018-01-02T00:40:54.944Z,994.96
2018-01-02T00:41:30.357Z,995.00
2018-01-02T00:42:05.632Z,994.99
2018-01-02T00:42:44.234Z,995.04
2018-01-02T00:43:19.536Z,995.03
2018-01-02T00:43:54.846Z,995.02
2018-01-02T00:44:30.178Z,995.05
2018-01-02T00:45:05.675Z,995.06
2018-01-02T00:45:41.385Z,995.06
2018-01-02T00:46:16.660Z,995.07
2018-01-02T00:46:51.969Z,995.09
2018-01-02T00:47:27.056Z,995.06
2018-01-02T00:48:02.459Z,995.08
2018-01-02T00:48:37.877Z,995.12
2018-01-02T00:49:13.083Z,995.13
2018-01-02T00:49:48.404Z,995.14
2018-01-02T00:50:23.778Z,995.16
2018-01-02T00:50:59.109Z,995.16
2018-01-02T00:51:34.285Z,995.17
2018-01-02T00:52:09.782Z,995.19
2018-01-02T00:52:45.073Z,995.18
2018-01-02T00:53:20.571Z,995.24
2018-01-02T00:53:55.676Z,995.21
2018-01-02T00:54:31.182Z,995.25
2018-01-02T00:55:06.671Z,995.26
2018-01-02T00:55:42.276Z,995.25
2018-01-02T00:56:17.782Z,995.25
2018-01-02T00:56:53.072Z,995.25
2018-01-02T00:57:28.567Z,995.20
2018-01-02T00:58:04.641Z,995.27
2018-01-02T00:58:39.752Z,995.22
2018-01-02T00:59:15.264Z,995.28
2018-01-02T00:59:50.881Z,995.34
2018-01-02T01:00:26.164Z,995.32
2018-01-02T01:01:01.165Z,995.30
2018-01-02T01:01:36.594Z,995.37
2018-01-02T01:02:12.266Z,995.43
2018-01-02T01:02:47.568Z,995.36
2018-01-02T01:03:23.156Z,995.40
2018-01-02T01:03:58.355Z,995.39
2018-01-02T01:04:33.662Z,995.40
2018-01-02T01:05:08.866Z,995.44
2018-01-02T01:05:44.446Z,995.42
2018-01-02T01:06:19.851Z,995.45
2018-01-02T01:06:55.255Z,995.48
2018-01-02T01:07:30.540Z,995.47
2018-01-02T01:08:05.646Z,995.49
2018-01-02T01:08:41.130Z,995.50
2018-01-02T01:09:16.400Z,995.53
2018-01-02T01:09:51.813Z,995.54
2018-01-02T01:10:27.412Z,995.54
2018-01-02T01:11:02.790Z,995.51
2018-01-02T01:11:38.108Z,995.53
2018-01-02T01:12:13.681Z,995.56
2018-01-02T01:12:49.082Z,995.59
2018-01-02T01:13:24.294Z,995.54
2018-01-02T01:13:59.789Z,995.58
2018-01-02T01:14:34.887Z,995.56
2018-01-02T01:15:10.494Z,995.58
2018-01-02T01:15:45.801Z,995.60
2018-01-02T01:16:21.310Z,995.59
2018-01-02T01:16:56.629Z,995.64
2018-01-02T01:17:31.898Z,995.66
2018-01-02T01:18:07.204Z,995.66
2018-01-02T01:18:42.819Z,995.67
2018-01-02T01:19:18.100Z,995.68
2018-01-02T01:19:53.420Z,995.71
2018-01-02T01:20:29.029Z,995.73
2018-01-02T01:21:04.330Z,995.75
2018-01-02T01:21:39.714Z,995.78
2018-01-02T01:22:15.119Z,995.83
2018-01-02T01:22:50.395Z,995.84
2018-01-02T01:23:25.905Z,995.81
2018-01-02T01:24:01.252Z,995.84
2018-01-02T01:24:36.602Z,995.87
2018-01-02T01:25:11.812Z,995.87
2018-01-02T01:25:46.923Z,995.87
2018-01-02T01:26:22.533Z,995.93
2018-01-02T01:26:57.809Z,995.91
2018-01-02T01:27:33.213Z,995.91
2018-01-02T01:28:08.792Z,995.94
2018-01-02T01:28:44.197Z,995.98
2018-01-02T01:29:19.814Z,995.92
2018-01-02T01:29:55.095Z,995.95
2018-01-02T01:30:30.406Z,995.94
2018-01-02T01:31:05.909Z,995.96
2018-01-02T01:31:41.312Z,995.96
2018-01-02T01:32:16.783Z,995.97
2018-01-02T01:32:51.987Z,995.98
2018-01-02T01:33:27.171Z,996.01
2018-01-02T01:34:02.467Z,995.97
2018-01-02T01:34:37.879Z,996.01
2018-01-02T01:35:13.355Z,996.02
2018-01-02T01:35:48.456Z,996.06
2018-01-02T01:36:23.666Z,996.02
2018-01-02T01:36:59.075Z,996.05
2018-01-02T01:37:34.247Z,996.03
2018-01-02T01:38:09.749Z,996.08
2018-01-02T01:38:45.134Z,996.09
2018-01-02T01:39:20.832Z,996.15
2018-01-02T01:39:56.113Z,996.12
2018-01-02T01:40:31.749Z,996.17
2018-01-02T01:41:07.288Z,996.18
2018-01-02T01:41:42.789Z,996.16
2018-01-02T01:42:17.984Z,996.19
2018-01-02T01:42:53.664Z,996.17
2018-01-02T01:43:29.068Z,996.19
2018-01-02T01:44:04.344Z,996.24
2018-01-02T01:44:39.951Z,996.21
2018-01-02T01:45:15.323Z,996.24
2018-01-02T01:45:50.522Z,996.23
2018-01-02T01:46:26.148Z,996.27
2018-01-02T01:47:01.557Z,996.31
2018-01-02T01:47:36.856Z,996.25
2018-01-02T01:48:12.360Z,996.30
2018-01-02T01:48:47.955Z,996.28
2018-01-02T01:49:23.021Z,996.28
2018-01-02T01:49:58.433Z,996.31
2018-01-02T01:50:33.701Z,996.34
2018-01-02T01:51:09.414Z,996.37
2018-01-02T01:51:44.810Z,996.35
2018-01-02T01:52:20.415Z,996.34
2018-01-02T01:52:55.524Z,996.31
2018-01-02T01:53:31.000Z,996.38
2018-01-02T01:54:06.498Z,996.37
2018-01-02T01:54:41.691Z,996.36
2018-01-02T01:55:16.899Z,996.37
2018-01-02T01:55:52.374Z,996.40
2018-01-02T01:56:27.672Z,996.41
2018-01-02T01:57:02.765Z,996.43
2018-01-02T01:57:38.293Z,996.45
2018-01-02T01:58:13.515Z,996.43
2018-01-02T01:58:48.992Z,996.43
2018-01-02T01:59:24.196Z,996.50
2018-01-02T01:59:59.472Z,996.50
2018-01-02T02:00:35.078Z,996.52
2018-01-02T02:01:10.559Z,996.53
2018-01-02T02:01:45.870Z,996.55
2018-01-02T02:02:21.263Z,996.55
2018-01-02T02:02:56.391Z,996.58
2018-01-02T02:03:31.606Z,996.59
2018-01-02T02:04:06.972Z,996.59
2018-01-02T02:04:41.969Z,996.57
2018-01-02T02:05:17.261Z,996.61
2018-01-02T02:05:52.667Z,996.65
2018-01-02T02:06:27.750Z,996.62
2018-01-02T02:07:02.861Z,996.64
2018-01-02T02:07:38.127Z,996.64
2018-01-02T02:08:13.154Z,996.62
2018-01-02T02:08:48.659Z,996.64
2018-01-02T02:09:23.759Z,996.70
2018-01-02T02:09:59.468Z,996.67
2018-01-02T02:10:34.845Z,996.64
2018-01-02T02:11:10.241Z,996.64
2018-01-02T02:11:45.216Z,996.67
2018-01-02T02:12:20.616Z,996.65
2018-01-02T02:12:56.001Z,996.71
2018-01-02T02:13:31.434Z,996.64
2018-01-02T02:14:06.606Z,996.66
2018-01-02T02:14:41.825Z,996.70
2018-01-02T02:15:17.119Z,996.70
2018-01-02T02:15:52.289Z,996.70
2018-01-02T02:16:27.497Z,996.69
2018-01-02T02:17:02.864Z,996.68
2018-01-02T02:17:38.168Z,996.74
2018-01-02T02:18:13.846Z,996.73
2018-01-02T02:18:49.486Z,996.71
2018-01-02T02:19:25.056Z,996.76
2018-01-02T02:20:00.361Z,996.75
2018-01-02T02:20:35.780Z,996.78
2018-01-02T02:21:11.353Z,996.78
2018-01-02T02:21:46.662Z,996.72
2018-01-02T02:22:22.045Z,996.78
2018-01-02T02:22:57.647Z,996.79
2018-01-02T02:23:33.020Z,996.77
2018-01-02T02:24:08.257Z,996.78
2018-01-02T02:24:43.327Z,996.76
2018-01-02T02:25:18.835Z,996.74
2018-01-02T02:25:54.154Z,996.74
2018-01-02T02:26:29.325Z,996.75
2018-01-02T02:27:04.331Z,996.76
2018-01-02T02:27:39.610Z,996.79
2018-01-02T02:28:14.914Z,996.76
2018-01-02T02:28:50.304Z,996.79
2018-01-02T02:29:25.536Z,996.77
2018-01-02T02:30:01.015Z,996.75
2018-01-02T02:30:36.118Z,996.76
2018-01-02T02:31:11.324Z,996.76
2018-01-02T02:31:47.011Z,996.79
2018-01-02T02:32:22.209Z,996.78
2018-01-02T02:32:57.708Z,996.78
2018-01-02T02:33:33.004Z,996.82
2018-01-02T02:34:08.486Z,996.79
2018-01-02T02:34:43.824Z,996.80
2018-01-02T02:35:19.106Z,996.81
2018-01-02T02:35:54.411Z,996.80
2018-01-02T02:36:29.585Z,996.80
2018-01-02T02:37:05.202Z,996.81
2018-01-02T02:37:40.705Z,996.80
2018-01-02T02:38:15.987Z,996.80
2018-01-02T02:38:51.490Z,996.79
2018-01-02T02:39:26.675Z,996.81
2018-01-02T02:40:01.901Z,996.79
2018-01-02T02:40:37.290Z,996.78
2018-01-02T02:41:12.294Z,996.78
2018-01-02T02:41:47.577Z,996.85
2018-01-02T02:42:22.982Z,996.81
2018-01-02T02:42:58.089Z,996.82
2018-01-02T02:43:33.571Z,996.78
2018-01-02T02:44:08.881Z,996.80
2018-01-02T02:44:44.156Z,996.82
2018-01-02T02:45:19.483Z,996.83
2018-01-02T02:45:54.555Z,996.83
2018-01-02T02:46:29.866Z,996.81
2018-01-02T02:47:05.143Z,996.84
2018-01-02T02:47:40.549Z,996.84
2018-01-02T02:48:15.927Z,996.83
2018-01-02T02:48:51.137Z,996.83
2018-01-02T02:49:26.241Z,996.84
2018-01-02T02:50:01.519Z,996.87
2018-01-02T02:50:37.060Z,996.87
2018-01-02T02:51:12.443Z,996.91
2018-01-02T02:51:47.760Z,996.86
2018-01-02T02:52:23.028Z,996.92
2018-01-02T02:52:58.443Z,996.94
2018-01-02T02:53:33.725Z,996.98
2018-01-02T02:54:09.333Z,996.97
2018-01-02T02:54:44.648Z,996.95
2018-01-02T02:55:19.729Z,996.99
2018-01-02T02:55:54.883Z,997.00
2018-01-02T02:56:30.253Z,996.98
2018-01-02T02:57:05.559Z,997.01
2018-01-02T02:57:41.139Z,997.00
2018-01-02T02:58:16.445Z,997.03
2018-01-02T02:58:51.742Z,996.97
2018-01-02T02:59:26.948Z,996.99
2018-01-02T03:00:02.264Z,997.02
2018-01-02T03:00:39.044Z,997.03
2018-01-02T03:01:14.270Z,997.01
2018-01-02T03:01:49.862Z,997.04
2018-01-02T03:02:25.059Z,997.07
2018-01-02T03:03:00.479Z,997.07
2018-01-02T03:03:36.483Z,997.05
2018-01-02T03:04:11.767Z,997.05
2018-01-02T03:04:47.171Z,997.06
2018-01-02T03:05:22.617Z,997.03
2018-01-02T03:05:57.904Z,997.12
2018-01-02T03:06:33.240Z,997.07
2018-01-02T03:07:08.627Z,997.07
2018-01-02T03:07:44.132Z,997.10
2018-01-02T03:08:19.522Z,997.11
2018-01-02T03:08:55.328Z,997.10
2018-01-02T03:09:30.532Z,997.11
2018-01-02T03:10:06.240Z,997.09
2018-01-02T03:10:41.653Z,997.14
2018-01-02T03:11:17.377Z,997.14
2018-01-02T03:11:52.667Z,997.16
2018-01-02T03:12:28.250Z,997.16
2018-01-02T03:13:03.564Z,997.15
2018-01-02T03:13:38.852Z,997.17
2018-01-02T03:14:14.259Z,997.21
2018-01-02T03:14:49.533Z,997.17
2018-01-02T03:15:25.240Z,997.19
2018-01-02T03:16:00.520Z,997.19
2018-01-02T03:16:36.128Z,997.23
2018-01-02T03:17:11.755Z,997.20
2018-01-02T03:17:47.339Z,997.21
2018-01-02T03:18:22.772Z,997.24
2018-01-02T03:18:57.954Z,997.27
2018-01-02T03:19:33.358Z,997.21
2018-01-02T03:20:08.434Z,997.23
2018-01-02T03:20:43.760Z,997.22
2018-01-02T03:21:19.031Z,997.21
2018-01-02T03:21:54.537Z,997.27
2018-01-02T03:22:30.070Z,997.27
2018-01-02T03:23:05.244Z,997.27
2018-01-02T03:23:40.454Z,997.33
2018-01-02T03:24:15.834Z,997.33
2018-01-02T03:24:51.243Z,997.28
2018-01-02T03:25:26.518Z,997.34
2018-01-02T03:26:02.027Z,997.34
2018-01-02T03:26:37.508Z,997.39
2018-01-02T03:27:12.806Z,997.37
2018-01-02T03:27:48.162Z,997.35
2018-01-02T03:28:23.439Z,997.34
2018-01-02T03:28:58.746Z,997.39
2018-01-02T03:29:34.117Z,997.37
2018-01-02T03:30:09.547Z,997.33
2018-01-02T03:30:46.427Z,997.33
2018-01-02T03:31:21.735Z,997.34
2018-01-02T03:31:57.514Z,997.30
2018-01-02T03:32:33.015Z,997.36
2018-01-02T03:33:08.358Z,997.31
2018-01-02T03:33:43.634Z,997.36
2018-01-02T03:34:18.941Z,997.34
2018-01-02T03:34:54.117Z,997.33
2018-01-02T03:35:29.421Z,997.34
2018-01-02T03:36:04.600Z,997.41
2018-01-02T03:36:39.814Z,997.44
2018-01-02T03:37:15.102Z,997.44
2018-01-02T03:37:50.409Z,997.43
2018-01-02T03:38:25.950Z,997.43
2018-01-02T03:39:01.128Z,997.46
2018-01-02T03:39:36.446Z,997.48
2018-01-02T03:40:11.930Z,997.49
2018-01-02T03:40:47.029Z,997.53
2018-01-02T03:41:22.313Z,997.55
2018-01-02T03:41:57.619Z,997.51
2018-01-02T03:42:33.400Z,997.57
2018-01-02T03:43:08.608Z,997.59
2018-01-02T03:43:44.027Z,997.59
2018-01-02T03:44:19.537Z,997.55
2018-01-02T03:44:54.860Z,997.61
2018-01-02T03:45:30.145Z,997.53
2018-01-02T03:46:05.376Z,997.60
2018-01-02T03:46:40.757Z,997.55
2018-01-02T03:47:16.366Z,997.60
2018-01-02T03:47:51.752Z,997.59
2018-01-02T03:48:27.354Z,997.63
2018-01-02T03:49:02.763Z,997.60
2018-01-02T03:49:38.163Z,997.60
2018-01-02T03:50:13.371Z,997.59
2018-01-02T03:50:48.656Z,997.59
2018-01-02T03:51:24.162Z,997.61
2018-01-02T03:51:59.327Z,997.66
2018-01-02T03:52:34.638Z,997.66
2018-01-02T03:53:10.020Z,997.62
2018-01-02T03:53:45.432Z,997.71
2018-01-02T03:54:20.741Z,997.69
2018-01-02T03:54:56.146Z,997.66
2018-01-02T03:55:31.955Z,997.74
2018-01-02T03:56:07.131Z,997.73
2018-01-02T03:56:42.635Z,997.75
2018-01-02T03:57:17.716Z,997.72
2018-01-02T03:57:53.117Z,997.70
2018-01-02T03:58:28.394Z,997.74
2018-01-02T03:59:03.796Z,997.70
2018-01-02T03:59:39.405Z,997.74
2018-01-02T04:00:14.608Z,997.72
2018-01-02T04:00:50.143Z,997.75
2018-01-02T04:01:25.322Z,997.79
2018-01-02T04:02:00.438Z,997.78
2018-01-02T04:02:36.207Z,997.80
2018-01-02T04:03:11.408Z,997.84
2018-01-02T04:03:46.784Z,997.80
2018-01-02T04:04:21.999Z,997.81
2018-01-02T04:04:57.505Z,997.80
2018-01-02T04:05:33.008Z,997.79
2018-01-02T04:06:08.098Z,997.82
2018-01-02T04:06:43.620Z,997.84
2018-01-02T04:07:19.226Z,997.83
2018-01-02T04:07:54.616Z,997.84
2018-01-02T04:08:30.032Z,997.85
2018-01-02T04:09:05.518Z,997.90
2018-01-02T04:09:40.625Z,997.87
2018-01-02T04:10:15.833Z,997.88
2018-01-02T04:10:51.269Z,997.91
2018-01-02T04:11:26.365Z,997.88
2018-01-02T04:12:01.754Z,997.88
2018-01-02T04:12:37.167Z,997.89
2018-01-02T04:13:12.456Z,997.90
2018-01-02T04:13:47.761Z,997.90
2018-01-02T04:14:23.040Z,997.91
2018-01-02T04:14:58.345Z,997.92
2018-01-02T04:15:33.851Z,997.96
2018-01-02T04:16:08.950Z,997.95
2018-01-02T04:16:44.328Z,997.94
2018-01-02T04:17:19.834Z,997.94
2018-01-02T04:17:55.516Z,997.93
2018-01-02T04:18:30.729Z,997.95
2018-01-02T04:19:05.849Z,997.91
2018-01-02T04:19:41.245Z,997.97
2018-01-02T04:20:16.647Z,997.94
2018-01-02T04:20:51.660Z,997.98
2018-01-02T04:21:27.060Z,998.01
2018-01-02T04:22:02.443Z,998.00
2018-01-02T04:22:37.943Z,998.02
2018-01-02T04:23:13.018Z,998.06
2018-01-02T04:23:48.418Z,998.05
2018-01-02T04:24:23.728Z,998.09
2018-01-02T04:24:59.009Z,998.02
2018-01-02T04:25:34.323Z,998.05
2018-01-02T04:26:09.759Z,998.06
2018-01-02T04:26:45.260Z,998.04
2018-01-02T04:27:20.751Z,998.08
2018-01-02T04:27:56.072Z,998.05
2018-01-02T04:28:31.253Z,998.02
2018-01-02T04:29:06.496Z,998.10
2018-01-02T04:29:41.694Z,998.12
2018-01-02T04:30:16.972Z,998.12
2018-01-02T04:30:52.376Z,998.13
2018-01-02T04:31:27.985Z,998.18
2018-01-02T04:32:03.494Z,998.16
2018-01-02T04:32:38.987Z,998.14
2018-01-02T04:33:14.509Z,998.18
2018-01-02T04:33:49.794Z,998.13
2018-01-02T04:34:25.207Z,998.13
2018-01-02T04:35:00.584Z,998.15
2018-01-02T04:35:36.190Z,998.14
2018-01-02T04:36:11.709Z,998.16
2018-01-02T04:36:47.309Z,998.14
2018-01-02T04:37:22.510Z,998.17
2018-01-02T04:37:57.894Z,998.14
2018-01-02T04:38:33.101Z,998.15
2018-01-02T04:39:08.572Z,998.15
2018-01-02T04:39:44.069Z,998.18
2018-01-02T04:40:19.439Z,998.20
2018-01-02T04:40:54.747Z,998.21
2018-01-02T04:41:29.859Z,998.19
2018-01-02T04:42:04.966Z,998.22
2018-01-02T04:42:40.288Z,998.24
2018-01-02T04:43:15.468Z,998.23
2018-01-02T04:43:50.768Z,998.27
2018-01-02T04:44:25.945Z,998.24
2018-01-02T04:45:01.149Z,998.29
2018-01-02T04:45:36.431Z,998.30
2018-01-02T04:46:11.646Z,998.33
2018-01-02T04:46:46.947Z,998.35
2018-01-02T04:47:22.155Z,998.38
2018-01-02T04:47:57.863Z,998.38
2018-01-02T04:48:33.151Z,998.35
2018-01-02T04:49:08.750Z,998.38
2018-01-02T04:49:43.843Z,998.43
2018-01-02T04:50:18.946Z,998.43
2018-01-02T04:50:54.322Z,998.45
2018-01-02T04:51:29.828Z,998.46
2018-01-02T04:52:05.315Z,998.47
2018-01-02T04:52:40.550Z,998.45
2018-01-02T04:53:16.055Z,998.48
2018-01-02T04:53:52.577Z,998.51
2018-01-02T04:54:27.777Z,998.53
2018-01-02T04:55:03.451Z,998.54
2018-01-02T04:55:38.662Z,998.55
2018-01-02T04:56:14.150Z,998.52
2018-01-02T04:56:49.446Z,998.59
2018-01-02T04:57:24.731Z,998.58
2018-01-02T04:58:00.273Z,998.58
2018-01-02T04:58:35.684Z,998.59
2018-01-02T04:59:11.156Z,998.60
2018-01-02T04:59:46.875Z,998.62
2018-01-02T05:00:22.249Z,998.59
2018-01-02T05:00:57.549Z,998.57
2018-01-02T05:01:32.936Z,998.58
2018-01-02T05:02:08.336Z,998.59
2018-01-02T05:02:43.630Z,998.57
2018-01-02T05:03:18.968Z,998.61
2018-01-02T05:03:54.278Z,998.66
2018-01-02T05:04:29.653Z,998.66
2018-01-02T05:05:05.056Z,998.71
2018-01-02T05:05:40.145Z,998.68
2018-01-02T05:06:15.465Z,998.67
2018-01-02T05:06:50.734Z,998.72
2018-01-02T05:07:26.331Z,998.66
2018-01-02T05:08:01.708Z,998.73
2018-01-02T05:08:37.244Z,998.68
2018-01-02T05:09:12.450Z,998.73
2018-01-02T05:09:47.637Z,998.75
2018-01-02T05:10:22.857Z,998.75
2018-01-02T05:10:58.335Z,998.75
2018-01-02T05:11:33.541Z,998.79
2018-01-02T05:12:09.337Z,998.81
2018-01-02T05:12:44.538Z,998.83
2018-01-02T05:13:19.621Z,998.81
2018-01-02T05:13:55.164Z,998.84
2018-01-02T05:14:31.209Z,998.85
2018-01-02T05:15:06.918Z,998.85
2018-01-02T05:15:42.522Z,998.88
2018-01-02T05:16:17.705Z,998.89
2018-01-02T05:16:53.008Z,998.97
2018-01-02T05:17:28.085Z,998.88
2018-01-02T05:18:03.384Z,998.89
2018-01-02T05:18:38.767Z,998.94
2018-01-02T05:19:13.900Z,998.98
2018-01-02T05:19:49.080Z,998.97
2018-01-02T05:20:24.482Z,999.02
2018-01-02T05:20:59.696Z,998.97
2018-01-02T05:21:34.978Z,998.99
2018-01-02T05:22:10.179Z,999.00
2018-01-02T05:22:45.657Z,999.03
2018-01-02T05:23:21.066Z,999.04
2018-01-02T05:23:56.350Z,999.10
2018-01-02T05:24:31.398Z,999.05
2018-01-02T05:25:06.291Z,999.06
2018-01-02T05:25:41.504Z,999.09
2018-01-02T05:26:17.012Z,999.10
2018-01-02T05:26:52.292Z,999.13
2018-01-02T05:27:27.604Z,999.12
2018-01-02T05:28:03.187Z,999.18
2018-01-02T05:28:38.591Z,999.17
2018-01-02T05:29:13.775Z,999.19
2018-01-02T05:29:49.126Z,999.11
2018-01-02T05:30:24.503Z,999.14
2018-01-02T05:30:59.817Z,999.14
2018-01-02T05:31:34.998Z,999.16
2018-01-02T05:32:10.111Z,999.19
2018-01-02T05:32:45.521Z,999.21
2018-01-02T05:33:20.894Z,999.15
2018-01-02T05:33:56.098Z,999.16
2018-01-02T05:34:31.676Z,999.21
2018-01-02T05:35:07.205Z,999.21
2018-01-02T05:35:42.497Z,999.25
2018-01-02T05:36:17.699Z,999.23
2018-01-02T05:36:53.271Z,999.25
2018-01-02T05:37:28.571Z,999.28
2018-01-02T05:38:05.497Z,999.28
2018-01-02T05:38:40.573Z,999.26
2018-01-02T05:39:15.875Z,999.27
2018-01-02T05:39:51.057Z,999.31
2018-01-02T05:40:26.483Z,999.26
2018-01-02T05:41:01.767Z,999.31
2018-01-02T05:41:37.370Z,999.33
2018-01-02T05:42:12.749Z,999.30
2018-01-02T05:42:48.148Z,999.29
2018-01-02T05:43:24.260Z,999.33
2018-01-02T05:43:59.444Z,999.35
2018-01-02T05:44:34.648Z,999.30
2018-01-02T05:45:10.029Z,999.32
2018-01-02T05:45:45.766Z,999.37
2018-01-02T05:46:21.049Z,999.36
2018-01-02T05:46:56.455Z,999.38
2018-01-02T05:47:31.834Z,999.35
2018-01-02T05:48:07.051Z,999.39
2018-01-02T05:48:42.460Z,999.41
2018-01-02T05:49:17.736Z,999.38
2018-01-02T05:49:53.140Z,999.37
2018-01-02T05:50:28.522Z,999.43
2018-01-02T05:51:03.861Z,999.46
2018-01-02T05:51:39.255Z,999.46
2018-01-02T05:52:14.461Z,999.44
2018-01-02T05:52:51.357Z,999.45
2018-01-02T05:53:26.760Z,999.46
2018-01-02T05:54:02.031Z,999.46
2018-01-02T05:54:37.438Z,999.44
2018-01-02T05:55:12.745Z,999.52
2018-01-02T05:55:48.636Z,999.48
2018-01-02T05:56:23.874Z,999.48
2018-01-02T05:57:02.561Z,999.46
2018-01-02T05:57:37.771Z,999.50
2018-01-02T05:58:13.162Z,999.48
2018-01-02T05:58:49.480Z,999.54
2018-01-02T05:59:27.256Z,999.54
2018-01-02T06:00:02.453Z,999.55
2018-01-02T06:00:38.676Z,999.55
2018-01-02T06:01:13.951Z,999.54
2018-01-02T06:01:49.985Z,999.56
2018-01-02T06:02:26.274Z,999.58
2018-01-02T06:03:01.982Z,999.59
2018-01-02T06:03:37.660Z,999.62
2018-01-02T06:04:13.476Z,999.62
2018-01-02T06:04:48.891Z,999.66
2018-01-02T06:05:24.469Z,999.66
2018-01-02T06:05:59.674Z,999.71
2018-01-02T06:06:34.949Z,999.67
2018-01-02T06:07:10.291Z,999.73
2018-01-02T06:07:45.766Z,999.74
2018-01-02T06:08:21.374Z,999.76
2018-01-02T06:08:56.553Z,999.78
2018-01-02T06:09:32.056Z,999.77
2018-01-02T06:10:07.227Z,999.79
2018-01-02T06:10:42.533Z,999.77
2018-01-02T06:11:24.856Z,999.81
2018-01-02T06:12:01.133Z,999.81
2018-01-02T06:12:36.664Z,999.84
2018-01-02T06:13:12.353Z,999.86
2018-01-02T06:13:47.664Z,999.85
2018-01-02T06:14:23.139Z,999.88
2018-01-02T06:14:58.244Z,999.90
2018-01-02T06:15:33.327Z,999.91
2018-01-02T06:16:09.739Z,999.95
2018-01-02T06:16:45.039Z,999.93
2018-01-02T06:17:20.332Z,999.98
2018-01-02T06:17:58.355Z,999.94
2018-01-02T06:18:33.734Z,999.99
2018-01-02T06:19:09.210Z,1000.00
2018-01-02T06:19:45.694Z,1000.00
2018-01-02T06:20:21.087Z,1000.00
2018-01-02T06:20:59.773Z,1000.04
2018-01-02T06:21:34.985Z,1000.03
2018-01-02T06:22:13.292Z,1000.04
2018-01-02T06:22:49.876Z,1000.03
2018-01-02T06:23:25.415Z,1000.05
2018-01-02T06:24:04.298Z,1000.07
2018-01-02T06:24:39.898Z,1000.08
2018-01-02T06:25:15.278Z,1000.11
2018-01-02T06:25:50.487Z,1000.09
2018-01-02T06:26:25.690Z,1000.14
2018-01-02T06:27:01.366Z,1000.13
2018-01-02T06:27:36.676Z,1000.15
2018-01-02T06:28:11.860Z,1000.14
2018-01-02T06:28:47.293Z,1000.19
2018-01-02T06:29:22.684Z,1000.18
2018-01-02T06:29:58.105Z,1000.18
2018-01-02T06:30:33.374Z,1000.22
2018-01-02T06:31:08.981Z,1000.26
2018-01-02T06:31:46.877Z,1000.20
2018-01-02T06:32:22.492Z,1000.24
2018-01-02T06:33:00.470Z,1000.22
2018-01-02T06:33:35.981Z,1000.23
2018-01-02T06:34:14.036Z,1000.21
2018-01-02T06:34:49.250Z,1000.23
2018-01-02T06:35:24.848Z,1000.24
2018-01-02T06:36:00.124Z,1000.24
2018-01-02T06:36:35.529Z,1000.26
2018-01-02T06:37:10.918Z,1000.27
2018-01-02T06:37:46.311Z,1000.27
2018-01-02T06:38:21.504Z,1000.27
2018-01-02T06:38:57.008Z,1000.25
2018-01-02T06:39:32.354Z,1000.26
2018-01-02T06:40:07.620Z,1000.28
2018-01-02T06:40:42.921Z,1000.28
2018-01-02T06:41:18.099Z,1000.27
2018-01-02T06:41:53.509Z,1000.28
2018-01-02T06:42:28.798Z,1000.28
2018-01-02T06:43:04.301Z,1000.30
2018-01-02T06:43:39.592Z,1000.33
2018-01-02T06:44:14.889Z,1000.32
2018-01-02T06:44:50.238Z,1000.33
2018-01-02T06:45:25.523Z,1000.38
2018-01-02T06:46:05.538Z,1000.37
2018-01-02T06:46:40.822Z,1000.38
2018-01-02T06:47:16.444Z,1000.37
2018-01-02T06:47:51.729Z,1000.39
2018-01-02T06:48:26.933Z,1000.36
2018-01-02T06:49:02.615Z,1000.40
2018-01-02T06:49:38.025Z,1000.40
2018-01-02T06:50:13.359Z,1000.41
2018-01-02T06:50:48.641Z,1000.38
2018-01-02T06:51:24.053Z,1000.39
2018-01-02T06:51:59.744Z,1000.45
2018-01-02T06:52:34.741Z,1000.41
2018-01-02T06:53:10.039Z,1000.44
2018-01-02T06:53:45.464Z,1000.44
2018-01-02T06:54:20.642Z,1000.43
2018-01-02T06:54:56.150Z,1000.45
2018-01-02T06:55:31.283Z,1000.48
2018-01-02T06:56:06.466Z,1000.47
2018-01-02T06:56:41.875Z,1000.49
2018-01-02T06:57:17.154Z,1000.50
2018-01-02T06:57:57.295Z,1000.44
2018-01-02T06:58:38.871Z,1000.48
2018-01-02T07:01:18.442Z,1000.55
2018-01-02T07:01:59.721Z,1000.59
2018-01-02T07:02:43.402Z,1000.57
2018-01-02T07:03:19.388Z,1000.62
2018-01-02T07:03:56.043Z,1000.61
2018-01-02T07:04:34.531Z,1000.62
2018-01-02T07:05:10.311Z,1000.61
2018-01-02T07:05:45.495Z,1000.65
2018-01-02T07:06:20.684Z,1000.61
2018-01-02T07:06:59.179Z,1000.68
2018-01-02T07:07:34.486Z,1000.66
2018-01-02T07:08:09.646Z,1000.71
2018-01-02T07:08:45.038Z,1000.71
2018-01-02T07:09:20.600Z,1000.68
2018-01-02T07:09:55.990Z,1000.73
2018-01-02T07:10:31.253Z,1000.72
2018-01-02T07:11:06.913Z,1000.75
2018-01-02T07:11:42.199Z,1000.69
2018-01-02T07:12:17.800Z,1000.77
2018-01-02T07:12:53.196Z,1000.77
2018-01-02T07:13:28.853Z,1000.76
2018-01-02T07:14:04.147Z,1000.78
2018-01-02T07:14:39.413Z,1000.79
2018-01-02T07:15:14.907Z,1000.79
2018-01-02T07:15:50.168Z,1000.81
2018-01-02T07:16:25.464Z,1000.83
2018-01-02T07:17:00.875Z,1000.85
2018-01-02T07:17:36.173Z,1000.87
2018-01-02T07:18:11.543Z,1000.83
2018-01-02T07:18:46.836Z,1000.88
2018-01-02T07:19:22.160Z,1000.90
2018-01-02T07:19:57.516Z,1000.91
2018-01-02T07:20:32.912Z,1000.90
2018-01-02T07:21:08.585Z,1000.91
2018-01-02T07:21:43.697Z,1000.93
2018-01-02T07:22:19.393Z,1000.92
2018-01-02T07:22:54.783Z,1000.95